TAF Text Data
IDs:
Format:
Raw Decoded Include METAR

Data at: 0223 UTC 23 Sep 2018

KLBB 230153Z 07008KT 10SM FEW250 17/11 A3013 RMK AO2 SLP172 T01720111 $

KLBB 222320Z 2300/2324 03010KT P6SM SKC
  FM230600 VRB06KT P6SM SKC